createdAt,value
2022-09-20T00:01:17.459Z,10.00
2022-09-20T00:03:47.491Z,10.00
2022-09-20T00:06:16.999Z,9.90
2022-09-20T00:08:44.742Z,9.90
2022-09-20T00:11:18.159Z,9.90
2022-09-20T00:13:47.143Z,10.00
2022-09-20T00:16:17.857Z,9.90
2022-09-20T00:18:49.795Z,9.80
2022-09-20T00:21:18.892Z,9.80
2022-09-20T00:23:46.428Z,9.70
2022-09-20T00:26:17.531Z,9.80
2022-09-20T00:28:44.739Z,9.70
2022-09-20T00:31:12.066Z,9.80
2022-09-20T00:33:57.954Z,9.70
2022-09-20T00:36:27.247Z,9.80
2022-09-20T00:38:58.768Z,9.80
2022-09-20T00:41:26.053Z,9.70
2022-09-20T00:43:53.449Z,9.80
2022-09-20T00:46:27.888Z,9.90
2022-09-20T00:49:01.804Z,9.90
2022-09-20T00:51:32.709Z,9.80
2022-09-20T00:54:04.032Z,9.70
2022-09-20T00:56:37.969Z,10.10
2022-09-20T00:59:20.015Z,10.20
2022-09-20T01:01:52.810Z,10.30
2022-09-20T01:04:22.723Z,10.50
2022-09-20T01:06:53.822Z,10.40
2022-09-20T01:09:20.688Z,10.40
2022-09-20T01:11:49.004Z,10.60
2022-09-20T01:14:28.349Z,10.50
2022-09-20T01:17:00.200Z,10.60
2022-09-20T01:20:06.022Z,10.60
2022-09-20T01:22:44.323Z,10.70
2022-09-20T01:25:45.954Z,10.60
2022-09-20T01:28:13.365Z,10.20
2022-09-20T01:31:06.559Z,10.00
2022-09-20T01:33:36.459Z,9.80
2022-09-20T01:36:05.387Z,9.90
2022-09-20T01:39:03.768Z,9.90
2022-09-20T01:42:02.103Z,9.80
2022-09-20T01:44:36.997Z,9.90
2022-09-20T01:47:16.006Z,10.00
2022-09-20T01:50:12.273Z,10.30
2022-09-20T01:52:57.714Z,10.70
2022-09-20T01:56:12.825Z,11.00
2022-09-20T01:59:01.919Z,11.30
2022-09-20T02:01:58.821Z,11.20
2022-09-20T02:04:55.990Z,11.30
2022-09-20T02:07:44.533Z,11.30
2022-09-20T02:10:23.288Z,11.60
2022-09-20T02:13:17.455Z,11.70
2022-09-20T02:16:12.750Z,11.60
2022-09-20T02:18:56.947Z,11.50
2022-09-20T02:21:39.091Z,11.80
2022-09-20T02:24:26.596Z,11.80
2022-09-20T02:27:21.953Z,11.30
2022-09-20T02:30:01.383Z,11.10
2022-09-20T02:33:08.694Z,10.90
2022-09-20T02:35:46.820Z,10.90
2022-09-20T02:38:51.505Z,10.90
2022-09-20T02:41:33.716Z,10.80
2022-09-20T02:44:25.223Z,10.80
2022-09-20T02:47:36.834Z,10.60
2022-09-20T02:50:15.491Z,10.80
2022-09-20T02:52:52.131Z,10.80
2022-09-20T02:55:36.329Z,10.60
2022-09-20T02:58:09.119Z,10.60
2022-09-20T03:00:54.861Z,10.60
2022-09-20T03:03:38.279Z,10.60
2022-09-20T03:06:48.269Z,10.40
2022-09-20T03:09:54.245Z,10.40
2022-09-20T03:12:43.650Z,10.30
2022-09-20T03:15:36.424Z,10.30
2022-09-20T03:18:13.622Z,10.20
2022-09-20T03:21:00.299Z,10.20
2022-09-20T03:23:52.814Z,10.10
2022-09-20T03:26:41.154Z,10.20
2022-09-20T03:29:26.507Z,10.40
2022-09-20T03:32:16.873Z,10.40
2022-09-20T03:34:57.229Z,10.40
2022-09-20T03:37:33.126Z,10.40
2022-09-20T03:40:45.680Z,10.40
2022-09-20T03:43:28.291Z,10.40
2022-09-20T03:46:04.318Z,10.40
2022-09-20T03:49:09.958Z,10.50
2022-09-20T03:51:58.625Z,10.50
2022-09-20T03:54:31.324Z,10.60
2022-09-20T03:57:19.458Z,10.60
2022-09-20T04:00:18.284Z,10.60
2022-09-20T04:02:54.599Z,10.50
2022-09-20T04:05:47.926Z,10.40
2022-09-20T04:08:21.444Z,10.30
2022-09-20T04:11:09.380Z,10.40
2022-09-20T04:13:40.106Z,10.40
2022-09-20T04:16:28.330Z,10.40
2022-09-20T04:19:04.818Z,10.60
2022-09-20T04:21:55.821Z,10.60
2022-09-20T04:24:28.898Z,10.50
2022-09-20T04:27:03.885Z,10.50
2022-09-20T04:29:31.152Z,10.60
2022-09-20T04:32:26.352Z,10.70
2022-09-20T04:35:31.842Z,10.70
2022-09-20T04:38:06.171Z,10.60
2022-09-20T04:40:57.647Z,10.50
2022-09-20T04:43:39.527Z,10.40
2022-09-20T04:46:21.414Z,10.30
2022-09-20T04:49:35.646Z,10.20
2022-09-20T04:52:34.507Z,10.10
2022-09-20T04:55:28.353Z,10.10
2022-09-20T04:58:33.824Z,10.00
2022-09-20T05:01:17.647Z,9.90
2022-09-20T05:03:50.626Z,10.00
2022-09-20T05:06:38.941Z,9.90
2022-09-20T05:09:05.816Z,9.90
2022-09-20T05:11:55.876Z,9.90
2022-09-20T05:14:32.927Z,9.90
2022-09-20T05:17:21.393Z,10.00
2022-09-20T05:20:26.386Z,10.20
2022-09-20T05:22:53.323Z,10.10
2022-09-20T05:25:56.437Z,10.10
2022-09-20T05:28:36.179Z,10.20
2022-09-20T05:31:19.366Z,10.20
2022-09-20T05:34:08.592Z,10.20
2022-09-20T05:36:56.252Z,10.30
2022-09-20T05:40:06.488Z,10.30
2022-09-20T05:42:47.056Z,10.30
2022-09-20T05:45:42.913Z,10.40
2022-09-20T05:48:32.468Z,10.40
2022-09-20T05:51:27.058Z,10.40
2022-09-20T05:53:59.634Z,10.40
2022-09-20T05:56:45.823Z,10.40
2022-09-20T05:59:45.282Z,10.50
2022-09-20T06:02:24.214Z,10.50
2022-09-20T06:04:51.245Z,10.70
2022-09-20T06:07:30.338Z,10.70
2022-09-20T06:10:21.094Z,10.80
2022-09-20T06:13:15.084Z,10.80
2022-09-20T06:15:59.802Z,10.90
2022-09-20T06:18:34.535Z,10.90
2022-09-20T06:21:22.356Z,11.00
2022-09-20T06:23:49.585Z,11.40
2022-09-20T06:26:18.199Z,11.70
2022-09-20T06:28:49.168Z,12.00
2022-09-20T06:31:17.968Z,12.10
2022-09-20T06:33:59.314Z,12.30
2022-09-20T06:36:47.327Z,12.50
2022-09-20T06:39:54.095Z,12.60
2022-09-20T06:42:23.318Z,12.80
2022-09-20T06:44:53.948Z,13.00
2022-09-20T06:47:21.783Z,13.30
2022-09-20T06:49:50.252Z,13.40
2022-09-20T06:52:22.967Z,13.70
2022-09-20T06:54:54.212Z,14.10
2022-09-20T06:57:32.465Z,14.40
2022-09-20T06:59:59.395Z,14.50
2022-09-20T07:02:27.197Z,14.60
2022-09-20T07:04:55.346Z,14.70
2022-09-20T07:07:22.244Z,15.10
2022-09-20T07:09:49.105Z,15.40
2022-09-20T07:12:15.986Z,18.50
2022-09-20T07:14:44.304Z,19.70
2022-09-20T07:17:11.224Z,22.70
2022-09-20T07:19:38.185Z,24.80
2022-09-20T07:22:05.404Z,24.40
2022-09-20T07:24:32.305Z,21.50
2022-09-20T07:27:02.184Z,22.90
2022-09-20T07:29:29.694Z,21.00
2022-09-20T07:31:57.216Z,23.80
2022-09-20T07:34:24.279Z,26.80
2022-09-20T07:36:51.383Z,27.10
2022-09-20T07:39:18.665Z,26.70
2022-09-20T07:41:51.181Z,23.70
2022-09-20T07:44:22.113Z,24.80
2022-09-20T07:46:53.024Z,28.30
2022-09-20T07:49:21.254Z,30.30
2022-09-20T07:51:49.665Z,30.20
2022-09-20T07:54:16.934Z,31.10
2022-09-20T07:56:44.819Z,31.90
2022-09-20T07:59:12.401Z,31.40
2022-09-20T08:01:40.303Z,30.80
2022-09-20T08:04:08.836Z,31.50
2022-09-20T08:06:40.933Z,33.40
2022-09-20T08:09:11.186Z,33.10
2022-09-20T08:11:40.106Z,33.80
2022-09-20T08:14:15.369Z,34.50
2022-09-20T08:16:45.169Z,34.80
2022-09-20T08:19:30.455Z,32.50
2022-09-20T08:21:57.518Z,32.40
2022-09-20T08:24:26.173Z,32.60
2022-09-20T08:26:53.107Z,31.90
2022-09-20T08:29:20.182Z,33.10
2022-09-20T08:31:47.200Z,32.30
2022-09-20T08:34:15.390Z,32.00
2022-09-20T08:36:47.752Z,34.90
2022-09-20T08:42:14.517Z,29.10
2022-09-20T08:44:45.784Z,30.70
2022-09-20T08:47:16.029Z,32.20
2022-09-20T08:49:46.017Z,32.10
2022-09-20T08:52:36.316Z,33.50
2022-09-20T08:55:16.883Z,34.20
2022-09-20T08:57:44.829Z,33.50
2022-09-20T09:00:18.912Z,33.70
2022-09-20T09:02:46.574Z,35.00
2022-09-20T09:05:33.796Z,36.00
2022-09-20T09:08:16.156Z,35.70
2022-09-20T09:10:49.134Z,35.70
2022-09-20T09:13:25.836Z,35.50
2022-09-20T09:15:59.490Z,36.00
2022-09-20T09:18:35.172Z,37.00
2022-09-20T09:21:05.745Z,38.10
2022-09-20T09:23:50.459Z,37.40
2022-09-20T09:26:23.413Z,37.30
2022-09-20T09:29:14.283Z,38.00
2022-09-20T09:31:41.496Z,39.40
2022-09-20T09:34:26.355Z,39.10
2022-09-20T09:36:57.258Z,34.40
2022-09-20T09:39:26.900Z,30.40
2022-09-20T09:41:54.350Z,28.70
2022-09-20T09:44:30.580Z,26.60
2022-09-20T09:46:58.267Z,25.30
2022-09-20T09:49:34.198Z,25.10
2022-09-20T09:52:24.631Z,25.10
2022-09-20T09:54:55.118Z,25.30
2022-09-20T09:57:43.846Z,24.60
2022-09-20T10:00:21.534Z,24.10
2022-09-20T10:03:04.320Z,24.00
2022-09-20T10:05:50.086Z,23.80
2022-09-20T10:08:28.724Z,23.20
2022-09-20T10:11:37.608Z,22.10
2022-09-20T10:14:32.734Z,21.40
2022-09-20T10:17:24.083Z,20.50
2022-09-20T10:20:05.172Z,21.00
2022-09-20T10:23:24.131Z,22.40
2022-09-20T10:25:57.812Z,23.90
2022-09-20T10:28:55.987Z,28.00
2022-09-20T10:31:54.531Z,30.00
2022-09-20T10:34:50.529Z,33.50
2022-09-20T10:37:49.616Z,35.50
2022-09-20T10:40:24.970Z,32.80
2022-09-20T10:43:16.554Z,29.70
2022-09-20T10:46:14.514Z,27.70
2022-09-20T10:48:52.428Z,26.80
2022-09-20T10:51:28.645Z,25.00
2022-09-20T10:54:14.434Z,23.70
2022-09-20T10:56:47.135Z,22.90
2022-09-20T10:59:27.116Z,22.70
2022-09-20T11:02:10.557Z,23.40
2022-09-20T11:05:03.670Z,25.10
2022-09-20T11:07:56.706Z,25.50
2022-09-20T11:10:47.648Z,24.70
2022-09-20T11:13:33.973Z,23.70
2022-09-20T11:16:34.594Z,23.70
2022-09-20T11:19:11.401Z,23.20
2022-09-20T11:21:49.510Z,22.00
2022-09-20T11:24:49.056Z,21.40
2022-09-20T11:27:32.026Z,21.40
2022-09-20T11:30:08.309Z,22.30
2022-09-20T11:32:47.210Z,22.60
2022-09-20T11:35:46.861Z,22.00
2022-09-20T11:38:31.805Z,21.80
2022-09-20T11:41:19.703Z,23.10
2022-09-20T11:43:48.338Z,24.80
2022-09-20T11:46:33.605Z,25.80
2022-09-20T11:49:03.343Z,26.60
2022-09-20T11:51:49.535Z,27.50
2022-09-20T11:54:55.706Z,27.50
2022-09-20T11:57:24.171Z,26.40
2022-09-20T11:59:57.097Z,26.90
2022-09-20T12:02:31.050Z,27.30
2022-09-20T12:04:59.183Z,26.70
2022-09-20T12:07:35.063Z,26.50
2022-09-20T12:10:20.223Z,26.80
2022-09-20T12:12:51.076Z,25.90
2022-09-20T12:15:31.683Z,25.60
2022-09-20T12:17:58.542Z,26.10
2022-09-20T12:20:34.765Z,25.60
2022-09-20T12:23:45.241Z,24.30
2022-09-20T12:26:21.660Z,23.20
2022-09-20T12:28:54.178Z,22.90
2022-09-20T12:31:29.732Z,23.90
2022-09-20T12:34:17.760Z,23.70
2022-09-20T12:36:52.158Z,23.40
2022-09-20T12:39:29.891Z,23.40
2022-09-20T12:42:02.997Z,23.20
2022-09-20T12:44:41.838Z,23.50
2022-09-20T12:47:11.737Z,23.30
2022-09-20T12:50:00.173Z,23.00
2022-09-20T12:52:53.356Z,22.80
2022-09-20T12:55:32.855Z,22.70
2022-09-20T12:58:04.943Z,22.40
2022-09-20T13:00:40.678Z,22.10
2022-09-20T13:03:35.264Z,21.80
2022-09-20T13:06:11.854Z,21.50
2022-09-20T13:08:52.155Z,21.20
2022-09-20T13:11:28.619Z,21.50
2022-09-20T13:13:59.195Z,21.10
2022-09-20T13:16:48.146Z,21.00
2022-09-20T13:19:22.989Z,20.80
2022-09-20T13:22:23.194Z,20.80
2022-09-20T13:25:00.040Z,21.10
2022-09-20T13:27:40.956Z,21.00
2022-09-20T13:30:17.534Z,21.10
2022-09-20T13:32:44.843Z,21.20
2022-09-20T13:35:31.763Z,21.00
2022-09-20T13:38:25.035Z,21.40
2022-09-20T13:40:54.223Z,21.20
2022-09-20T13:43:29.599Z,21.20
2022-09-20T13:45:59.078Z,21.10
2022-09-20T13:48:30.055Z,20.90
2022-09-20T13:50:57.629Z,20.60
2022-09-20T13:53:42.371Z,20.50
2022-09-20T13:56:22.879Z,19.90
2022-09-20T13:58:51.086Z,20.10
2022-09-20T14:01:35.514Z,20.30
2022-09-20T14:04:09.425Z,20.40
2022-09-20T14:06:36.781Z,20.00
2022-09-20T14:09:11.008Z,19.70
2022-09-20T14:11:40.089Z,19.60
2022-09-20T14:14:09.331Z,19.50
2022-09-20T14:16:41.064Z,19.90
2022-09-20T14:19:08.873Z,20.00
2022-09-20T14:21:37.366Z,20.20
2022-09-20T14:24:13.277Z,20.50
2022-09-20T14:26:42.236Z,20.40
2022-09-20T14:29:32.340Z,20.30
2022-09-20T14:32:04.505Z,19.90
2022-09-20T14:34:31.644Z,19.70
2022-09-20T14:37:25.912Z,19.20
2022-09-20T14:39:58.570Z,19.00
2022-09-20T14:42:42.347Z,18.90
2022-09-20T14:45:31.551Z,18.70
2022-09-20T14:48:30.534Z,18.50
2022-09-20T14:51:10.241Z,18.50
2022-09-20T14:53:38.288Z,18.50
2022-09-20T14:56:05.115Z,18.50
2022-09-20T14:58:33.030Z,18.30
2022-09-20T15:01:06.796Z,18.10
2022-09-20T15:03:38.956Z,18.00
2022-09-20T15:06:10.015Z,17.90
2022-09-20T15:08:37.126Z,17.90
2022-09-20T15:11:04.575Z,17.80
2022-09-20T15:13:31.708Z,17.70
2022-09-20T15:15:59.373Z,17.70
2022-09-20T15:18:30.700Z,17.70
2022-09-20T15:20:57.583Z,17.70
2022-09-20T15:23:24.424Z,17.60
2022-09-20T15:25:53.264Z,17.60
2022-09-20T15:28:20.894Z,17.50
2022-09-20T15:30:50.719Z,17.30
2022-09-20T15:33:19.499Z,17.20
2022-09-20T15:35:47.126Z,17.10
2022-09-20T15:38:16.553Z,17.00
2022-09-20T15:40:48.212Z,17.00
2022-09-20T15:43:19.629Z,16.90
2022-09-20T15:46:27.115Z,17.00
2022-09-20T15:48:55.447Z,17.10
2022-09-20T15:51:22.995Z,17.00
2022-09-20T15:53:59.198Z,17.10
2022-09-20T15:56:31.391Z,17.10
2022-09-20T15:59:00.924Z,17.00
2022-09-20T16:01:42.949Z,17.10
2022-09-20T16:04:19.521Z,16.80
2022-09-20T16:06:49.432Z,16.80
2022-09-20T16:09:16.870Z,16.90
2022-09-20T16:11:43.727Z,16.90
2022-09-20T16:14:10.713Z,17.10
2022-09-20T16:16:40.605Z,17.20
2022-09-20T16:19:17.274Z,16.60
2022-09-20T16:21:53.752Z,16.40
2022-09-20T16:24:26.128Z,16.10
2022-09-20T16:26:53.604Z,16.00
2022-09-20T16:29:22.182Z,15.90
2022-09-20T16:31:50.629Z,15.70
2022-09-20T16:34:19.267Z,15.70
2022-09-20T16:36:58.590Z,15.60
2022-09-20T16:39:27.791Z,15.60
2022-09-20T16:42:05.651Z,15.80
2022-09-20T16:44:34.164Z,15.90
2022-09-20T16:47:01.454Z,15.90
2022-09-20T16:49:29.509Z,16.00
2022-09-20T16:51:56.392Z,16.10
2022-09-20T16:54:23.403Z,16.10
2022-09-20T16:56:51.442Z,16.10
2022-09-20T16:59:21.487Z,16.00
2022-09-20T17:01:49.476Z,15.90
2022-09-20T17:04:21.189Z,15.90
2022-09-20T17:06:49.997Z,15.80
2022-09-20T17:09:16.988Z,15.80
2022-09-20T17:11:47.182Z,15.80
2022-09-20T17:14:16.910Z,15.60
2022-09-20T17:16:47.543Z,15.60
2022-09-20T17:19:18.286Z,15.50
2022-09-20T17:21:49.819Z,15.60
2022-09-20T17:24:19.093Z,15.50
2022-09-20T17:26:46.305Z,15.50
2022-09-20T17:29:16.214Z,15.50
2022-09-20T17:31:55.588Z,15.50
2022-09-20T17:34:31.564Z,15.60
2022-09-20T17:36:59.175Z,15.60
2022-09-20T17:39:26.277Z,15.50
2022-09-20T17:41:53.333Z,15.30
2022-09-20T17:44:20.658Z,15.10
2022-09-20T17:46:49.944Z,14.90
2022-09-20T17:49:21.912Z,14.70
2022-09-20T17:51:51.417Z,14.50
2022-09-20T17:54:19.330Z,14.50
2022-09-20T17:56:48.739Z,14.40
2022-09-20T17:59:17.240Z,14.20
2022-09-20T18:01:45.873Z,14.20
2022-09-20T18:04:13.551Z,14.10
2022-09-20T18:06:51.184Z,14.00
2022-09-20T18:09:21.449Z,13.90
2022-09-20T18:11:50.619Z,13.80
2022-09-20T18:14:20.060Z,13.70
2022-09-20T18:16:47.367Z,13.60
2022-09-20T18:19:16.149Z,13.50
2022-09-20T18:21:43.828Z,13.40
2022-09-20T18:24:11.869Z,13.30
2022-09-20T18:26:39.534Z,13.20
2022-09-20T18:29:11.127Z,13.20
2022-09-20T18:31:50.153Z,13.10
2022-09-20T18:34:19.150Z,13.00
2022-09-20T18:36:51.589Z,13.00
2022-09-20T18:39:29.550Z,12.90
2022-09-20T18:41:57.322Z,12.90
2022-09-20T18:44:24.417Z,12.80
2022-09-20T18:46:55.205Z,12.70
2022-09-20T18:49:22.508Z,12.30
2022-09-20T18:51:49.930Z,12.10
2022-09-20T18:54:17.876Z,12.20
2022-09-20T18:56:47.089Z,12.00
2022-09-20T18:59:23.116Z,12.00
2022-09-20T19:02:42.584Z,12.00
2022-09-20T19:05:24.255Z,11.90
2022-09-20T19:08:05.627Z,12.00
2022-09-20T19:10:56.409Z,12.00
2022-09-20T19:13:36.183Z,11.90
2022-09-20T19:16:37.086Z,11.90
2022-09-20T19:19:12.980Z,11.90
2022-09-20T19:21:57.014Z,12.00
2022-09-20T19:25:01.516Z,12.00
2022-09-20T19:27:28.840Z,12.20
2022-09-20T19:29:55.988Z,12.40
2022-09-20T19:32:26.171Z,12.50
2022-09-20T19:35:01.726Z,12.70
2022-09-20T19:38:02.478Z,12.80
2022-09-20T19:40:54.691Z,13.00
2022-09-20T19:43:31.857Z,13.10
2022-09-20T19:46:10.472Z,13.00
2022-09-20T19:48:56.910Z,12.90
2022-09-20T19:51:24.266Z,13.00
2022-09-20T19:53:53.479Z,12.90
2022-09-20T19:56:27.686Z,12.80
2022-09-20T19:58:56.211Z,12.80
2022-09-20T20:01:24.957Z,12.70
2022-09-20T20:03:55.223Z,12.70
2022-09-20T20:06:37.232Z,12.70
2022-09-20T20:09:12.308Z,12.60
2022-09-20T20:11:44.627Z,12.50
2022-09-20T20:14:23.553Z,12.40
2022-09-20T20:17:01.053Z,12.40
2022-09-20T20:19:49.280Z,12.40
2022-09-20T20:22:28.460Z,12.30
2022-09-20T20:24:59.009Z,12.10
2022-09-20T20:27:28.429Z,11.90
2022-09-20T20:29:55.895Z,11.80
2022-09-20T20:32:23.360Z,11.70
2022-09-20T20:34:50.450Z,11.70
2022-09-20T20:37:18.156Z,11.70
2022-09-20T20:39:45.091Z,11.70
2022-09-20T20:42:12.926Z,11.70
2022-09-20T20:44:40.031Z,11.70
2022-09-20T20:47:07.519Z,11.80
2022-09-20T20:49:35.936Z,11.80
2022-09-20T20:52:05.122Z,11.70
2022-09-20T20:54:32.853Z,11.70
2022-09-20T20:56:59.840Z,11.80
2022-09-20T20:59:26.983Z,11.60
2022-09-20T21:01:54.059Z,11.50
2022-09-20T21:04:21.759Z,11.40
2022-09-20T21:06:50.365Z,11.40
2022-09-20T21:09:17.440Z,11.30
2022-09-20T21:11:44.745Z,11.20
2022-09-20T21:14:12.773Z,11.10
2022-09-20T21:16:43.065Z,11.20
2022-09-20T21:19:14.919Z,11.10
2022-09-20T21:21:44.265Z,11.00
2022-09-20T21:24:14.725Z,10.80
2022-09-20T21:26:42.103Z,10.80
2022-09-20T21:29:14.457Z,10.80
2022-09-20T21:31:43.439Z,10.80
2022-09-20T21:34:12.183Z,10.70
2022-09-20T21:36:44.722Z,10.70
2022-09-20T21:39:12.338Z,10.80
2022-09-20T21:41:40.203Z,10.70
2022-09-20T21:44:10.699Z,10.70
2022-09-20T21:46:40.264Z,10.60
2022-09-20T21:49:09.791Z,10.50
2022-09-20T21:51:38.103Z,10.50
2022-09-20T21:54:05.700Z,10.40
2022-09-20T21:56:35.731Z,10.40
2022-09-20T21:59:04.388Z,10.30
2022-09-20T22:01:37.529Z,10.30
2022-09-20T22:04:10.373Z,10.20
2022-09-20T22:06:39.668Z,10.20
2022-09-20T22:09:12.191Z,10.10
2022-09-20T22:11:44.619Z,10.00
2022-09-20T22:14:12.956Z,10.00
2022-09-20T22:16:42.296Z,10.00
2022-09-20T22:19:11.757Z,10.00
2022-09-20T22:21:47.873Z,9.90
2022-09-20T22:24:17.068Z,9.80
2022-09-20T22:26:46.550Z,9.60
2022-09-20T22:29:13.759Z,9.60
2022-09-20T22:31:45.175Z,9.50
2022-09-20T22:34:17.442Z,9.40
2022-09-20T22:36:44.882Z,9.30
2022-09-20T22:39:12.859Z,9.30
2022-09-20T22:41:41.370Z,9.20
2022-09-20T22:44:09.155Z,9.20
2022-09-20T22:46:38.077Z,9.10
2022-09-20T22:49:06.278Z,9.10
2022-09-20T22:51:33.605Z,9.10
2022-09-20T22:54:04.862Z,9.10
2022-09-20T22:56:31.890Z,9.10
2022-09-20T22:59:13.069Z,9.10
2022-09-20T23:01:45.769Z,9.10
2022-09-20T23:04:16.482Z,9.10
2022-09-20T23:06:55.060Z,9.00
2022-09-20T23:09:28.202Z,9.00
2022-09-20T23:11:55.368Z,9.00
2022-09-20T23:14:23.122Z,8.90
2022-09-20T23:16:50.619Z,8.90
2022-09-20T23:19:17.856Z,8.70
2022-09-20T23:21:44.969Z,8.70
2022-09-20T23:24:13.416Z,8.70
2022-09-20T23:26:41.237Z,8.60
2022-09-20T23:29:11.290Z,8.60
2022-09-20T23:31:40.006Z,8.60
2022-09-20T23:34:08.227Z,8.60
2022-09-20T23:36:38.184Z,8.60
2022-09-20T23:39:06.198Z,8.70
2022-09-20T23:41:33.986Z,8.70
2022-09-20T23:44:01.041Z,8.60
2022-09-20T23:46:28.013Z,8.60
2022-09-20T23:48:54.950Z,8.60
2022-09-20T23:51:24.041Z,8.60
2022-09-20T23:53:52.299Z,8.60
2022-09-20T23:56:20.310Z,8.50
2022-09-20T23:58:48.580Z,8.50
